Time;durP1;ratioP1;P1;durP2;ratioP2;P2;SDS_P1;SDS_P2;PMS_P1;PMS_P2;Temp;Humidity;BMP_temperature;BMP_pressure;BME280_temperature;BME280_humidity;BME280_pressure;Samples;Min_cycle;Max_cycle;Signal;HPM_P1;HPM_P2
2022/06/27 00:02:12;;;;;;;27.05;3.50;;;;;;;22.17;92.63;94449.09;5003566;28;20037;-89
2022/06/27 00:04:37;;;;;;;29.52;3.70;;;;;;;22.15;89.02;94445.97;5003246;28;20044;-89
2022/06/27 00:07:03;;;;;;;34.47;4.72;;;;;;;22.17;90.45;94451.00;5019515;28;20025;-89
2022/06/27 00:09:28;;;;;;;18.38;3.80;;;;;;;21.98;89.56;94439.03;5019424;28;20072;-90
2022/06/27 00:11:55;;;;;;;27.23;4.40;;;;;;;22.13;90.92;94437.53;5003234;28;20120;-89
2022/06/27 00:14:21;;;;;;;28.83;3.95;;;;;;;21.94;97.34;94434.69;5019523;28;20116;-89
2022/06/27 00:16:46;;;;;;;33.33;5.03;;;;;;;21.74;93.34;94427.34;5003168;28;20068;-88
2022/06/27 00:19:11;;;;;;;40.88;5.40;;;;;;;21.81;84.61;94432.09;5036457;28;20060;-92
2022/06/27 00:21:37;;;;;;;36.92;4.60;;;;;;;21.71;86.37;94432.56;5035694;28;20037;-90
2022/06/27 00:24:02;;;;;;;33.30;4.15;;;;;;;22.16;69.02;94436.88;5036561;28;20029;-89
2022/06/27 00:26:28;;;;;;;42.30;5.32;;;;;;;22.64;62.24;94422.84;5036868;28;20040;-89
2022/06/27 00:28:53;;;;;;;36.55;5.32;;;;;;;22.87;61.47;94420.38;5019151;28;20138;-89
2022/06/27 00:31:19;;;;;;;33.15;4.10;;;;;;;22.70;64.21;94416.16;5036834;28;20319;-90
2022/06/27 00:33:44;;;;;;;35.95;4.28;;;;;;;22.58;65.35;94400.22;5018911;28;20052;-90
2022/06/27 00:36:10;;;;;;;34.95;4.22;;;;;;;22.18;69.51;94399.94;5002746;28;20032;-90
2022/06/27 00:38:35;;;;;;;28.98;4.25;;;;;;;22.45;64.25;94410.13;5019056;28;20030;-90
2022/06/27 00:41:01;;;;;;;23.40;4.43;;;;;;;22.35;64.26;94410.66;5018788;28;20029;-89
2022/06/27 00:43:26;;;;;;;36.35;4.82;;;;;;;22.18;63.08;94410.59;5002957;28;20320;-90
2022/06/27 00:45:51;;;;;;;45.65;5.55;;;;;;;22.22;60.65;94410.72;5018783;28;20439;-88
2022/06/27 00:48:17;;;;;;;34.38;4.95;;;;;;;22.12;61.27;94405.84;5003180;28;20530;-89
2022/06/27 00:50:43;;;;;;;34.05;4.45;;;;;;;22.12;64.98;94405.84;5019094;28;20068;-89
2022/06/27 00:53:10;;;;;;;26.02;4.50;;;;;;;22.15;63.75;94395.28;5002636;28;20435;-89
2022/06/27 00:55:35;;;;;;;21.52;4.13;;;;;;;22.15;60.96;94389.94;5019157;28;20035;-90
2022/06/27 00:58:01;;;;;;;29.40;4.55;;;;;;;22.26;61.83;94386.81;5022965;28;20037;-90
2022/06/27 01:00:27;;;;;;;38.47;5.15;;;;;;;22.28;59.68;94384.56;5039070;28;20064;-89
2022/06/27 01:02:52;;;;;;;33.38;5.40;;;;;;;22.18;60.22;94375.94;5022712;28;20036;-89
2022/06/27 01:05:18;;;;;;;35.22;4.72;;;;;;;22.12;60.78;94363.97;5006628;28;20550;-90
2022/06/27 01:07:43;;;;;;;24.17;3.78;;;;;;;22.17;61.20;94365.63;5040104;28;20033;-90
2022/06/27 01:10:09;;;;;;;52.47;6.15;;;;;;;22.37;58.25;94369.16;5022570;28;20029;-91
2022/06/27 01:12:39;;;;;;;53.10;4.82;;;;;;;22.32;62.00;94366.75;5006114;28;20390;-89
2022/06/27 01:15:06;;;;;;;22.92;3.95;;;;;;;22.24;62.42;94362.34;5006885;28;20083;-89
2022/06/27 01:17:31;;;;;;;36.30;4.65;;;;;;;22.30;63.34;94358.31;5040379;28;20036;-89
2022/06/27 01:19:57;;;;;;;31.35;4.32;;;;;;;22.27;63.70;94342.97;5022681;28;20030;-89
2022/06/27 01:22:22;;;;;;;38.80;4.65;;;;;;;22.28;69.21;94344.53;4987042;28;20034;-89
2022/06/27 01:24:48;;;;;;;40.63;4.68;;;;;;;22.02;67.16;94335.09;4999588;28;20057;-89
2022/06/27 01:27:13;;;;;;;36.40;4.30;;;;;;;21.81;65.75;94338.75;5002558;28;20133;-89
2022/06/27 01:29:39;;;;;;;43.95;5.45;;;;;;;21.69;64.91;94338.81;4986872;28;20470;-89
2022/06/27 01:32:04;;;;;;;26.48;4.07;;;;;;;21.59;68.14;94348.00;4986825;28;20128;-90
2022/06/27 01:34:30;;;;;;;35.15;4.60;;;;;;;21.61;66.04;94330.56;4986137;28;20032;-88
2022/06/27 01:36:56;;;;;;;50.55;6.53;;;;;;;21.64;66.33;94339.78;5019965;28;20061;-88
2022/06/27 01:39:26;;;;;;;36.42;5.13;;;;;;;21.53;65.55;94341.38;5002558;28;20038;-89
2022/06/27 01:41:53;;;;;;;44.58;5.05;;;;;;;21.54;63.96;94337.59;4986066;28;20037;-89
2022/06/27 01:44:20;;;;;;;42.47;4.85;;;;;;;21.46;65.38;94333.94;5002497;28;20029;-87
2022/06/27 01:46:53;;;;;;;33.80;3.72;;;;;;;21.39;68.17;94339.09;4986276;28;20037;-89
2022/06/27 01:49:18;;;;;;;28.25;4.53;;;;;;;21.41;67.35;94329.63;5002465;28;20026;-89
2022/06/27 01:51:46;;;;;;;31.63;4.00;;;;;;;21.40;66.02;94328.06;5019355;28;20359;-89
2022/06/27 01:54:14;;;;;;;32.63;4.38;;;;;;;21.60;62.01;94328.25;5002620;28;20427;-90
2022/06/27 01:56:41;;;;;;;33.03;4.55;;;;;;;21.65;62.09;94337.88;4986112;28;20053;-89
2022/06/27 01:59:06;;;;;;;41.67;4.78;;;;;;;21.91;60.16;94347.38;5001764;28;20032;-88
2022/06/27 02:01:32;;;;;;;44.25;4.78;;;;;;;21.66;64.68;94336.78;5002555;28;20026;-89
2022/06/27 02:04:01;;;;;;;42.55;4.60;;;;;;;21.56;62.30;94346.81;5002042;28;20030;-89
2022/06/27 02:06:31;;;;;;;29.00;4.50;;;;;;;21.53;64.74;94354.69;4986506;28;20029;-89
2022/06/27 02:08:57;;;;;;;41.95;5.13;;;;;;;21.54;61.02;94351.72;4984679;28;20526;-89
2022/06/27 02:11:24;;;;;;;42.67;5.15;;;;;;;21.60;61.00;94363.66;4985839;28;20028;-89
2022/06/27 02:13:50;;;;;;;28.40;3.38;;;;;;;21.44;64.26;94360.16;5019323;28;20473;-89
2022/06/27 02:16:17;;;;;;;29.40;4.38;;;;;;;21.40;63.93;94368.03;4985438;28;20022;-90
2022/06/27 02:18:43;;;;;;;41.13;4.97;;;;;;;21.42;61.92;94360.50;4985830;28;20092;-89
2022/06/27 02:21:18;;;;;;;39.28;5.30;;;;;;;21.42;62.11;94365.06;5001657;28;20049;-89
2022/06/27 02:23:44;;;;;;;37.35;4.90;;;;;;;21.33;62.12;94360.63;5001584;28;20342;-89
2022/06/27 02:26:10;;;;;;;35.85;5.40;;;;;;;21.58;59.25;94363.25;4985583;28;20125;-89
2022/06/27 02:28:39;;;;;;;34.17;4.68;;;;;;;21.51;60.74;94356.94;4985773;28;20025;-89
2022/06/27 02:31:07;;;;;;;31.17;4.97;;;;;;;21.53;60.38;94358.16;5001866;28;20025;-89
2022/06/27 02:33:33;;;;;;;41.03;5.38;;;;;;;21.45;60.34;94361.72;5001399;28;20025;-89
2022/06/27 02:36:07;;;;;;;40.80;4.72;;;;;;;21.49;59.53;94370.59;5001362;28;20045;-90
2022/06/27 02:38:33;;;;;;;31.83;5.05;;;;;;;21.42;61.30;94371.16;5001004;28;20060;-88
2022/06/27 02:41:02;;;;;;;65.15;5.72;;;;;;;21.21;64.68;94379.28;4985201;28;20026;-89
2022/06/27 02:43:29;;;;;;;38.67;4.70;;;;;;;21.18;62.74;94379.97;5018786;28;20032;-88
2022/06/27 02:45:55;;;;;;;41.75;4.88;;;;;;;21.08;61.62;94391.84;4985342;28;20386;-89
2022/06/27 02:48:23;;;;;;;48.30;4.75;;;;;;;21.10;62.24;94386.97;5001222;28;20022;-89
2022/06/27 02:50:51;;;;;;;41.83;5.18;;;;;;;21.12;62.13;94395.38;5001053;28;20026;-89
2022/06/27 02:53:19;;;;;;;39.97;5.43;;;;;;;21.11;61.85;94391.19;4984787;28;20421;-89
2022/06/27 02:55:45;;;;;;;41.40;5.18;;;;;;;21.09;62.18;94393.41;5001100;28;20068;-90
2022/06/27 02:58:18;;;;;;;28.60;4.15;;;;;;;20.92;65.50;94391.72;4984648;28;20029;-89
2022/06/27 03:00:44;;;;;;;39.80;4.25;;;;;;;20.96;66.61;94383.84;4985514;28;20040;-88
2022/06/27 03:03:12;;;;;;;50.42;5.10;;;;;;;21.14;61.57;94389.75;4981798;28;20407;-88
2022/06/27 03:06:00;;;;;;;37.30;4.72;;;;;;;20.97;69.05;94396.84;4986534;28;20029;-88
2022/06/27 03:08:44;;;;;;;38.65;4.60;;;;;;;20.99;65.36;94396.50;4984520;28;20033;-89
2022/06/27 03:11:13;;;;;;;34.50;5.03;;;;;;;20.95;64.66;94403.59;5000953;28;20029;-89
2022/06/27 03:13:39;;;;;;;35.15;4.45;;;;;;;20.88;64.10;94412.94;4984542;28;20113;-89
2022/06/27 03:16:05;;;;;;;44.75;5.25;;;;;;;20.83;63.08;94409.72;5000777;28;20141;-88
2022/06/27 03:18:30;;;;;;;35.00;4.70;;;;;;;20.74;65.70;94421.19;4984723;28;20374;-88
2022/06/27 03:20:59;;;;;;;27.02;4.68;;;;;;;20.79;68.98;94424.75;5000753;28;20339;-88
2022/06/27 03:23:25;;;;;;;25.90;4.43;;;;;;;20.71;65.30;94419.19;4984979;28;20347;-89
2022/06/27 03:25:50;;;;;;;30.90;4.32;;;;;;;20.76;62.77;94424.31;4984420;28;20021;-88
2022/06/27 03:28:16;;;;;;;34.25;5.32;;;;;;;20.90;62.34;94418.69;5023091;28;20021;-88
2022/06/27 03:30:45;;;;;;;40.83;4.47;;;;;;;20.95;61.65;94422.25;5003794;28;20044;-88
2022/06/27 03:33:11;;;;;;;41.58;5.22;;;;;;;20.89;62.54;94421.69;5037527;28;20025;-88
2022/06/27 03:35:36;;;;;;;22.77;4.30;;;;;;;20.85;65.00;94429.56;5020208;28;20334;-88
2022/06/27 03:38:28;;;;;;;35.35;4.55;;;;;;;20.80;62.15;94421.75;5036265;28;20060;-88
2022/06/27 03:40:53;;;;;;;39.63;4.88;;;;;;;21.04;60.63;94421.03;5037374;28;20036;-90
2022/06/27 03:43:22;;;;;;;42.75;5.50;;;;;;;20.93;65.57;94421.81;5019816;28;20025;-87
2022/06/27 03:45:48;;;;;;;35.00;5.13;;;;;;;20.89;64.93;94429.69;5037394;28;20025;-89
2022/06/27 03:51:00;;;;;;;38.17;4.95;;;;;;;20.78;64.42;94431.97;5022410;28;20472;-88
2022/06/27 03:53:26;;;;;;;33.38;4.68;;;;;;;20.88;65.12;94426.25;5019587;28;20021;-89
2022/06/27 03:55:54;;;;;;;46.13;4.07;;;;;;;20.80;64.89;94431.63;5019669;28;20025;-89
2022/06/27 03:58:19;;;;;;;39.97;4.90;;;;;;;20.88;64.32;94438.78;5003008;28;20021;-88
2022/06/27 04:00:45;;;;;;;45.10;5.85;;;;;;;20.73;68.98;94440.94;5003491;28;20029;-88
2022/06/27 04:03:10;;;;;;;28.08;4.25;;;;;;;20.69;70.35;94434.72;5019505;28;20413;-88
2022/06/27 04:05:36;;;;;;;35.58;4.05;;;;;;;20.86;70.09;94438.34;5037081;28;20025;-89
2022/06/27 04:08:02;;;;;;;46.20;5.28;;;;;;;20.87;66.29;94429.22;5019211;28;20022;-89
2022/06/27 04:10:27;;;;;;;37.22;4.03;;;;;;;20.71;69.63;94435.19;5003291;28;20027;-89
2022/06/27 04:12:53;;;;;;;37.83;5.32;;;;;;;20.79;71.46;94438.84;5019423;28;20124;-88
2022/06/27 04:15:18;;;;;;;23.60;5.07;;;;;;;20.80;70.18;94440.41;5003179;28;20036;-90
2022/06/27 04:17:44;;;;;;;41.67;6.05;;;;;;;20.72;68.87;94433.28;5019011;28;20351;-90
2022/06/27 04:20:10;;;;;;;37.00;4.07;;;;;;;20.79;72.95;94430.84;5019210;28;20033;-89
2022/06/27 04:22:35;;;;;;;52.00;5.05;;;;;;;20.75;69.33;94435.31;5003137;28;20048;-90
2022/06/27 04:25:01;;;;;;;35.40;4.65;;;;;;;20.89;71.10;94440.31;5018938;28;20052;-90
2022/06/27 04:27:27;;;;;;;37.90;4.50;;;;;;;20.88;77.31;94442.22;5019145;28;20018;-89
2022/06/27 04:29:53;;;;;;;35.75;4.60;;;;;;;21.07;72.46;94442.78;5002830;28;20025;-89
2022/06/27 04:32:20;;;;;;;37.28;4.90;;;;;;;21.08;68.78;94439.78;5019104;28;20127;-90
2022/06/27 04:34:45;;;;;;;30.13;4.28;;;;;;;21.18;70.04;94433.25;5002618;28;20032;-90
2022/06/27 04:37:11;;;;;;;33.65;4.43;;;;;;;21.18;76.99;94438.56;5026402;28;20443;-89
2022/06/27 04:39:37;;;;;;;45.70;5.65;;;;;;;20.84;82.42;94448.53;4999416;28;20026;-89
2022/06/27 04:42:04;;;;;;;40.55;5.18;;;;;;;20.97;78.85;94446.66;4999411;28;20026;-89
2022/06/27 04:44:29;;;;;;;41.20;4.28;;;;;;;20.68;100.00;94438.50;4983232;28;20431;-90
2022/06/27 04:47:08;;;;;;;37.25;5.10;;;;;;;20.57;98.31;94434.69;4982734;28;20087;-90
2022/06/27 04:49:37;;;;;;;36.30;5.03;;;;;;;20.56;94.27;94441.91;4999650;28;20071;-89
2022/06/27 04:52:07;;;;;;;27.52;4.10;;;;;;;20.95;86.72;94443.56;4999238;28;20033;-90
2022/06/27 04:54:38;;;;;;;34.00;5.13;;;;;;;21.32;71.12;94440.91;4983440;28;20132;-90
2022/06/27 04:57:23;;;;;;;35.45;4.78;;;;;;;21.10;98.82;94439.47;4999119;28;20109;-90
2022/06/27 04:59:51;;;;;;;27.25;4.07;;;;;;;21.46;92.23;94445.88;4998933;28;20033;-89
2022/06/27 05:02:16;;;;;;;29.13;4.72;;;;;;;21.37;98.15;94445.22;4999326;28;20355;-89
2022/06/27 05:04:42;;;;;;;28.50;5.53;;;;;;;21.36;94.31;94459.66;4999208;28;20061;-91
2022/06/27 05:07:07;;;;;;;39.60;5.82;;;;;;;21.60;86.93;94464.22;5016283;28;20034;-90
2022/06/27 05:09:35;;;;;;;32.42;4.50;;;;;;;21.77;82.01;94452.53;4982829;28;20030;-90
2022/06/27 05:12:01;;;;;;;42.28;5.50;;;;;;;21.81;81.49;94465.97;4999012;28;20036;-92
2022/06/27 05:14:26;;;;;;;43.47;5.15;;;;;;;22.01;80.82;94475.69;4999020;28;20034;-92
2022/06/27 05:16:52;;;;;;;39.35;5.78;;;;;;;21.67;89.42;94458.34;5016360;28;20041;-92
2022/06/27 05:19:17;;;;;;;25.38;4.93;;;;;;;21.50;100.00;94462.75;5016312;28;20064;-91
2022/06/27 05:21:43;;;;;;;37.45;5.40;;;;;;;21.61;100.00;94455.09;5016349;28;20034;-90
2022/06/27 05:24:09;;;;;;;37.00;5.63;;;;;;;21.76;100.00;94453.63;4999350;28;20123;-92
2022/06/27 05:26:35;;;;;;;43.72;5.55;;;;;;;21.64;100.00;94449.09;5016331;28;20332;-91
2022/06/27 05:29:03;;;;;;;44.25;5.05;;;;;;;21.94;100.00;94453.38;4998654;28;20030;-91
2022/06/27 05:31:29;;;;;;;29.77;4.70;;;;;;;22.33;100.00;94461.69;5016230;28;20033;-92
2022/06/27 05:33:54;;;;;;;27.30;4.15;;;;;;;22.39;98.53;94459.56;5016180;28;20048;-91
2022/06/27 05:36:21;;;;;;;32.97;4.88;;;;;;;22.80;95.73;94448.81;5016220;28;20061;-91
2022/06/27 05:38:50;;;;;;;40.60;6.00;;;;;;;22.62;99.26;94443.78;5015986;28;20466;-90
2022/06/27 05:41:18;;;;;;;47.42;5.30;;;;;;;22.59;100.00;94450.59;4998766;28;20443;-88
2022/06/27 05:43:45;;;;;;;35.60;4.75;;;;;;;22.73;100.00;94452.84;5000879;28;20351;-89
2022/06/27 05:46:10;;;;;;;34.38;4.88;;;;;;;23.21;100.00;94467.34;5019829;28;20342;-90
2022/06/27 05:48:37;;;;;;;29.17;3.75;;;;;;;22.95;85.17;94447.28;5019394;28;20108;-91
2022/06/27 05:51:10;;;;;;;28.08;4.30;;;;;;;23.25;99.07;94446.81;5019622;28;20037;-91
2022/06/27 05:53:38;;;;;;;32.55;4.80;;;;;;;23.54;100.00;94448.28;5002125;28;20446;-92
2022/06/27 05:56:06;;;;;;;28.55;4.15;;;;;;;23.57;100.00;94447.59;5002193;28;20030;-90
2022/06/27 05:58:33;;;;;;;30.95;4.32;;;;;;;23.55;100.00;94441.03;5001980;28;20087;-90
2022/06/27 06:00:58;;;;;;;32.58;5.07;;;;;;;23.77;100.00;94444.19;5001779;28;20102;-89
2022/06/27 06:03:25;;;;;;;33.80;4.70;;;;;;;23.97;91.03;94451.09;5019830;28;20128;-89
2022/06/27 06:05:52;;;;;;;29.83;4.60;;;;;;;24.06;89.60;94450.16;4986338;28;20026;-90
2022/06/27 06:08:20;;;;;;;25.65;4.70;;;;;;;24.19;89.56;94459.59;5002120;28;20029;-90
2022/06/27 06:10:46;;;;;;;35.83;5.05;;;;;;;24.36;100.00;94458.38;5001923;28;20026;-89
2022/06/27 06:13:11;;;;;;;26.85;4.28;;;;;;;24.43;96.95;94458.50;4985927;28;20018;-90
2022/06/27 06:15:38;;;;;;;22.20;4.13;;;;;;;24.56;86.93;94461.03;5006782;28;20340;-90
2022/06/27 06:18:41;;;;;;;28.52;3.85;;;;;;;24.78;81.42;94461.44;4966065;28;20046;-90
2022/06/27 06:21:06;;;;;;;32.40;5.47;;;;;;;24.45;100.00;94454.69;4999417;28;20399;-89
2022/06/27 06:23:32;;;;;;;40.63;4.75;;;;;;;24.05;100.00;94449.34;4999646;28;20030;-89
2022/06/27 06:25:58;;;;;;;22.88;5.00;;;;;;;24.23;100.00;94455.06;4999886;28;20164;-88
2022/06/27 06:28:24;;;;;;;26.60;3.92;;;;;;;24.73;100.00;94451.75;4982130;28;20033;-90
2022/06/27 06:30:49;;;;;;;26.20;3.63;;;;;;;24.79;100.00;94454.94;4999114;28;20436;-89
2022/06/27 06:33:15;;;;;;;35.30;4.97;;;;;;;24.57;100.00;94465.25;5000586;28;20030;-89
2022/06/27 06:35:41;;;;;;;31.95;4.10;;;;;;;24.81;100.00;94458.03;5018774;28;20029;-90
2022/06/27 06:38:47;;;;;;;28.77;4.35;;;;;;;24.98;100.00;94454.13;5001289;28;20443;-90
2022/06/27 06:41:18;;;;;;;28.63;5.20;;;;;;;25.13;100.00;94469.31;5018567;28;20033;-90
2022/06/27 06:43:46;;;;;;;24.25;4.13;;;;;;;25.04;100.00;94474.16;5001288;28;20025;-90
2022/06/27 06:46:12;;;;;;;35.45;4.93;;;;;;;24.74;100.00;94490.03;5001342;28;20034;-91
2022/06/27 06:48:38;;;;;;;36.70;5.60;;;;;;;24.41;100.00;94484.88;5000881;28;20040;-89
2022/06/27 06:51:05;;;;;;;27.00;4.72;;;;;;;24.58;100.00;94490.91;5019262;28;20061;-89
2022/06/27 06:53:31;;;;;;;34.72;4.30;;;;;;;24.87;100.00;94496.03;5018566;28;20060;-91
2022/06/27 06:55:57;;;;;;;24.40;4.60;;;;;;;24.83;100.00;94493.31;5018267;28;20036;-90
2022/06/27 06:58:25;;;;;;;41.25;5.05;;;;;;;23.90;100.00;94491.09;5018161;28;20033;-91
2022/06/27 07:00:51;;;;;;;23.10;4.40;;;;;;;24.80;100.00;94494.00;5000714;28;20038;-90
2022/06/27 07:03:18;;;;;;;26.67;4.50;;;;;;;24.91;100.00;94486.94;5018218;28;20060;-90
2022/06/27 07:05:44;;;;;;;44.88;4.97;;;;;;;25.23;100.00;94486.69;4984543;28;20458;-90
2022/06/27 07:08:10;;;;;;;32.60;4.53;;;;;;;25.46;100.00;94482.44;5000813;28;20030;-90
2022/06/27 07:10:36;;;;;;;22.00;4.35;;;;;;;25.47;100.00;94484.00;5017901;28;20041;-90
2022/06/27 07:13:02;;;;;;;26.65;4.57;;;;;;;25.52;96.65;94479.09;5000749;28;20498;-89
2022/06/27 07:15:28;;;;;;;33.60;5.30;;;;;;;25.61;96.17;94480.78;5018263;28;20413;-89
2022/06/27 07:17:53;;;;;;;40.88;5.07;;;;;;;25.57;100.00;94475.34;4984370;28;20125;-91
2022/06/27 07:20:19;;;;;;;37.28;5.57;;;;;;;25.74;100.00;94465.22;5000365;28;20029;-89
2022/06/27 07:22:47;;;;;;;26.15;4.35;;;;;;;25.57;99.56;94464.63;5000645;28;20037;-91
2022/06/27 07:25:12;;;;;;;35.75;5.15;;;;;;;25.78;98.14;94471.44;4984441;28;20033;-90
2022/06/27 07:27:39;;;;;;;32.78;5.07;;;;;;;26.00;88.46;94472.50;5017773;28;20121;-89
2022/06/27 07:30:06;;;;;;;39.13;4.53;;;;;;;25.92;100.00;94466.25;5017852;28;20064;-90
2022/06/27 07:32:32;;;;;;;32.15;4.70;;;;;;;25.50;100.00;94462.59;5000306;28;20033;-91
2022/06/27 07:34:59;;;;;;;42.83;4.75;;;;;;;25.89;100.00;94463.53;5000205;28;20207;-89
2022/06/27 07:37:34;;;;;;;27.55;5.55;;;;;;;26.12;100.00;94460.75;5000793;28;20110;-91
2022/06/27 07:40:00;;;;;;;36.58;5.25;;;;;;;26.37;98.39;94455.69;5017523;28;20021;-91
2022/06/27 07:42:25;;;;;;;28.25;5.18;;;;;;;26.29;97.55;94456.75;4999907;28;20347;-90
2022/06/27 07:44:51;;;;;;;37.45;4.85;;;;;;;26.23;100.00;94453.63;5017463;28;20088;-91
2022/06/27 07:47:17;;;;;;;26.08;4.70;;;;;;;26.45;100.00;94453.84;4983851;28;20033;-91
2022/06/27 07:49:42;;;;;;;32.97;4.60;;;;;;;26.85;93.22;94456.94;5017335;28;20431;-90
2022/06/27 07:52:08;;;;;;;47.58;5.28;;;;;;;26.60;90.68;94454.00;4999876;28;20038;-89
2022/06/27 07:54:33;;;;;;;34.65;5.28;;;;;;;26.77;99.73;94458.00;5017588;28;20034;-89
2022/06/27 08:00:26;;;;;;;32.28;4.82;;;;;;;27.13;90.74;94444.91;5017046;28;20132;-90
2022/06/27 08:02:52;;;;;;;36.42;4.50;;;;;;;27.31;89.12;94455.03;4983567;28;20056;-91
2022/06/27 08:05:18;;;;;;;24.98;4.60;;;;;;;27.15;100.00;94449.91;5016880;28;20033;-90
2022/06/27 08:07:43;;;;;;;34.97;5.65;;;;;;;27.11;91.70;94449.88;4999248;28;20030;-88
2022/06/27 08:10:09;;;;;;;38.10;5.20;;;;;;;27.16;68.28;94451.44;5017302;28;20321;-88
2022/06/27 08:12:35;;;;;;;33.83;5.40;;;;;;;27.00;100.00;94449.03;4999900;28;20032;-90
2022/06/27 08:15:01;;;;;;;24.33;4.00;;;;;;;27.44;92.81;94455.50;5017118;28;20104;-91
2022/06/27 08:17:27;;;;;;;42.38;5.30;;;;;;;27.36;94.70;94460.06;4999491;28;20022;-91
2022/06/27 08:19:53;;;;;;;30.58;5.07;;;;;;;27.87;88.33;94463.09;4999459;28;20120;-91
2022/06/27 08:22:21;;;;;;;34.85;6.05;;;;;;;27.91;69.30;94461.97;4999698;28;20435;-90
2022/06/27 08:24:47;;;;;;;32.22;4.90;;;;;;;28.12;75.57;94465.13;4999853;28;20431;-90
2022/06/27 08:27:13;;;;;;;31.85;5.15;;;;;;;27.88;85.59;94468.09;4999379;28;20113;-90
2022/06/27 08:29:38;;;;;;;42.45;5.47;;;;;;;27.80;71.61;94459.22;5017072;28;20029;-90
2022/06/27 08:32:04;;;;;;;34.42;5.35;;;;;;;28.16;72.27;94457.84;4999493;28;20057;-91
2022/06/27 08:34:30;;;;;;;34.33;4.88;;;;;;;28.29;64.96;94451.00;5016790;28;20498;-90
2022/06/27 08:36:55;;;;;;;23.45;3.85;;;;;;;28.58;65.70;94461.09;4999287;28;20022;-92
2022/06/27 08:39:21;;;;;;;45.97;9.93;;;;;;;28.51;58.25;94467.22;5016485;28;20045;-92
2022/06/27 08:41:47;;;;;;;42.28;8.15;;;;;;;28.71;61.66;94453.44;5016790;28;20109;-89
2022/06/27 08:44:13;;;;;;;36.53;5.30;;;;;;;28.77;59.15;94451.88;4999428;28;20101;-90
2022/06/27 08:46:54;;;;;;;35.30;4.72;;;;;;;29.05;59.39;94456.56;4999232;28;20026;-90
2022/06/27 08:49:21;;;;;;;38.97;5.22;;;;;;;29.26;58.07;94456.94;4999179;28;20026;-89
2022/06/27 08:51:48;;;;;;;34.88;4.97;;;;;;;29.30;60.40;94466.56;4999321;28;20060;-90
2022/06/27 08:54:13;;;;;;;36.65;5.30;;;;;;;29.81;59.26;94466.53;4999034;28;20347;-90
2022/06/27 08:56:40;;;;;;;34.97;4.63;;;;;;;29.43;62.39;94439.22;4999059;28;20036;-90
2022/06/27 08:59:06;;;;;;;37.03;4.95;;;;;;;29.32;55.12;94431.88;4982900;28;20030;-90
2022/06/27 09:01:32;;;;;;;51.15;6.45;;;;;;;28.91;54.54;94465.41;4998510;28;20053;-90
2022/06/27 09:04:01;;;;;;;47.15;6.47;;;;;;;28.51;52.15;94469.91;4998965;28;20038;-90
2022/06/27 09:06:30;;;;;;;34.80;5.78;;;;;;;28.55;55.15;94451.84;4998924;28;20436;-90
2022/06/27 09:09:08;;;;;;;33.53;5.05;;;;;;;28.96;58.74;94460.78;4998880;28;20026;-91
2022/06/27 09:11:39;;;;;;;39.05;5.13;;;;;;;29.46;57.87;94460.81;4983935;28;20033;-91
2022/06/27 09:14:07;;;;;;;50.22;5.45;;;;;;;29.46;59.31;94460.81;4998969;28;20037;-90
2022/06/27 09:16:33;;;;;;;36.58;5.05;;;;;;;29.41;61.70;94457.72;4982893;28;20030;-90
2022/06/27 09:18:59;;;;;;;48.15;5.32;;;;;;;29.53;61.97;94453.84;5002332;28;20040;-89
2022/06/27 09:21:27;;;;;;;38.13;5.05;;;;;;;29.86;61.98;94449.19;5002279;28;20030;-90
2022/06/27 09:24:01;;;;;;;38.92;5.15;;;;;;;29.40;69.81;94445.38;5003158;28;20033;-90
2022/06/27 09:26:40;;;;;;;32.42;5.63;;;;;;;29.43;73.28;94447.31;5003107;28;20389;-89
2022/06/27 09:29:14;;;;;;;50.05;5.70;;;;;;;29.16;68.74;94448.47;5020197;28;20017;-90
2022/06/27 09:31:45;;;;;;;34.53;4.75;;;;;;;29.67;63.79;94448.44;4986495;28;20451;-89
2022/06/27 09:34:16;;;;;;;34.35;4.72;;;;;;;30.13;67.33;94451.44;4986476;28;20447;-89
2022/06/27 09:36:45;;;;;;;28.52;4.28;;;;;;;30.35;68.56;94454.03;4987113;28;20088;-91
2022/06/27 09:39:29;;;;;;;36.67;5.72;;;;;;;29.93;64.40;94453.78;5002588;28;20038;-89
2022/06/27 09:42:03;;;;;;;28.38;4.93;;;;;;;29.67;67.08;94447.69;5019992;28;20069;-90
2022/06/27 09:44:35;;;;;;;;;;;;;;;29.95;70.63;94446.06;5002484;28;20030;-89
2022/06/27 09:47:11;;;;;;;45.78;5.57;;;;;;;29.90;63.32;94437.19;5002870;28;19909;-91
2022/06/27 09:49:39;;;;;;;42.88;6.13;;;;;;;30.07;58.45;94440.25;5019515;28;20022;-89
2022/06/27 09:52:08;;;;;;;42.05;5.30;;;;;;;30.02;60.11;94435.22;5002461;28;20025;-91
2022/06/27 09:54:34;;;;;;;32.78;5.70;;;;;;;30.00;61.32;94432.16;5019643;28;20026;-90
2022/06/27 09:57:01;;;;;;;26.65;5.10;;;;;;;30.63;63.35;94439.63;5001997;28;20502;-90
2022/06/27 09:59:28;;;;;;;28.85;5.15;;;;;;;30.77;63.37;94429.88;5001676;28;20121;-90
2022/06/27 10:01:57;;;;;;;26.77;4.80;;;;;;;30.98;62.36;94431.66;4985510;28;20030;-91
2022/06/27 10:04:26;;;;;;;28.20;5.25;;;;;;;30.59;65.06;94436.13;5002362;28;20025;-91
2022/06/27 10:06:53;;;;;;;27.77;4.60;;;;;;;30.41;72.51;94438.94;5001822;28;20033;-91
2022/06/27 10:09:22;;;;;;;45.47;6.25;;;;;;;29.73;74.32;94446.91;5001858;28;20427;-90
2022/06/27 10:11:48;;;;;;;29.33;5.13;;;;;;;29.76;70.95;94431.81;4985903;28;20080;-90
2022/06/27 10:14:20;;;;;;;35.78;5.65;;;;;;;30.15;70.91;94430.97;5001715;28;20026;-89
2022/06/27 10:17:05;;;;;;;36.13;4.87;;;;;;;29.70;69.83;94428.78;5002188;28;20347;-91
2022/06/27 10:19:31;;;;;;;28.65;5.88;;;;;;;29.53;68.33;94426.88;5001478;28;20506;-92
2022/06/27 10:21:56;;;;;;;25.27;5.35;;;;;;;29.41;70.75;94425.31;4985465;28;20036;-90
2022/06/27 10:24:23;;;;;;;18.90;4.35;;;;;;;29.75;68.90;94422.97;5001479;28;20025;-90
2022/06/27 10:26:52;;;;;;;31.48;5.82;;;;;;;29.84;73.89;94432.56;5018758;28;20030;-90
2022/06/27 10:29:42;;;;;;;26.17;5.30;;;;;;;29.79;80.44;94432.97;4992924;28;20032;-89
2022/06/27 10:32:44;;;;;;;29.33;5.18;;;;;;;29.49;76.64;94435.75;4982726;28;20034;-91
2022/06/27 10:35:11;;;;;;;22.27;5.63;;;;;;;29.76;81.76;94432.59;4981669;28;20042;-92
2022/06/27 10:37:38;;;;;;;29.02;5.22;;;;;;;29.91;78.36;94433.34;4999026;28;20041;-89
2022/06/27 10:40:19;;;;;;;29.98;4.97;;;;;;;30.10;77.85;94442.19;4999179;28;20030;-91
2022/06/27 10:42:56;;;;;;;23.95;4.90;;;;;;;30.33;67.69;94440.91;4999048;28;20112;-91
2022/06/27 10:45:21;;;;;;;26.27;5.63;;;;;;;30.46;67.62;94447.41;4997910;28;20026;-91
2022/06/27 10:48:29;;;;;;;33.47;5.47;;;;;;;29.89;69.05;94446.44;4981782;28;20026;-91
2022/06/27 10:50:55;;;;;;;24.48;5.13;;;;;;;30.09;69.39;94450.66;4998590;28;20034;-90
2022/06/27 10:53:31;;;;;;;37.67;5.18;;;;;;;30.78;68.40;94459.22;5001441;28;20391;-91
2022/06/27 10:55:56;;;;;;;31.33;5.28;;;;;;;30.60;63.12;94453.88;5000778;28;20431;-91
2022/06/27 10:58:23;;;;;;;26.55;5.55;;;;;;;30.97;66.51;94443.63;5000541;28;20034;-91
2022/06/27 11:00:51;;;;;;;26.73;5.28;;;;;;;31.04;68.04;94449.75;5000756;28;20199;-92
2022/06/27 11:03:22;;;;;;;33.53;5.22;;;;;;;30.11;71.70;94451.03;5000486;28;20053;-90
2022/06/27 11:06:03;;;;;;;39.28;6.07;;;;;;;30.67;66.95;94455.81;4984469;28;20279;-89
2022/06/27 11:08:32;;;;;;;25.00;5.00;;;;;;;30.47;70.53;94451.63;4984400;28;20041;-91
2022/06/27 11:10:57;;;;;;;25.45;4.90;;;;;;;30.63;74.58;94442.34;5000596;28;20029;-89
2022/06/27 11:13:41;;;;;;;28.80;5.03;;;;;;;30.55;70.60;94441.56;5000805;28;20175;-91
2022/06/27 11:16:09;;;;;;;31.80;5.72;;;;;;;29.93;68.46;94443.00;5018236;28;20030;-91
2022/06/27 11:18:42;;;;;;;32.30;5.03;;;;;;;30.65;68.40;94437.31;5017875;28;20034;-92
2022/06/27 11:21:13;;;;;;;27.05;5.78;;;;;;;30.23;71.66;94450.59;4984395;28;20040;-90
2022/06/27 11:23:52;;;;;;;29.42;5.95;;;;;;;30.48;72.21;94434.25;5000392;28;20069;-90
2022/06/27 11:26:23;;;;;;;25.80;5.45;;;;;;;30.87;66.72;94434.44;5000299;28;20438;-93
2022/06/27 11:31:58;;;;;;;27.48;5.38;;;;;;;30.56;70.41;94426.91;5003186;28;20041;-95
2022/06/27 11:34:25;;;;;;;27.13;5.82;;;;;;;30.63;71.47;94425.34;5018054;28;20029;-94
2022/06/27 11:36:52;;;;;;;33.25;5.07;;;;;;;31.01;71.07;94436.28;5000760;28;20026;-92
2022/06/27 11:39:31;;;;;;;36.67;5.40;;;;;;;30.80;69.34;94437.22;5000221;28;20111;-93